createdAt,value
2023-05-03T00:04:57.499Z,5.63
2023-05-03T00:10:00.828Z,6.13
2023-05-03T00:15:04.025Z,5.70
2023-05-03T00:20:08.343Z,5.38
2023-05-03T00:25:11.135Z,7.07
2023-05-03T00:30:14.129Z,7.90
2023-05-03T00:35:17.050Z,6.57
2023-05-03T00:40:19.874Z,7.10
2023-05-03T00:45:22.710Z,7.80
2023-05-03T00:50:25.454Z,7.82
2023-05-03T00:55:32.232Z,7.73
2023-05-03T01:00:35.112Z,7.20
2023-05-03T01:05:45.096Z,7.38
2023-05-03T01:11:06.297Z,7.25
2023-05-03T01:16:27.285Z,8.00
2023-05-03T01:21:31.306Z,8.77
2023-05-03T01:26:34.488Z,8.55
2023-05-03T01:31:49.210Z,9.25
2023-05-03T01:36:58.400Z,8.50
2023-05-03T01:42:02.428Z,9.82
2023-05-03T01:47:05.136Z,9.13
2023-05-03T01:52:08.073Z,9.73
2023-05-03T01:57:11.030Z,9.98
2023-05-03T02:02:13.798Z,9.40
2023-05-03T02:07:17.082Z,9.07
2023-05-03T02:12:22.054Z,8.77
2023-05-03T02:17:26.841Z,9.55
2023-05-03T02:22:29.506Z,9.63
2023-05-03T02:27:32.182Z,8.65
2023-05-03T02:32:34.964Z,8.98
2023-05-03T02:37:37.837Z,9.27
2023-05-03T02:42:45.187Z,9.60
2023-05-03T02:47:50.833Z,9.32
2023-05-03T02:52:54.607Z,8.80
2023-05-03T02:57:57.196Z,9.07
2023-05-03T03:03:00.351Z,9.17
2023-05-03T03:08:03.828Z,10.07
2023-05-03T03:13:06.960Z,10.27
2023-05-03T03:18:13.862Z,10.07
2023-05-03T03:23:16.521Z,10.05
2023-05-03T03:28:19.745Z,9.70
2023-05-03T03:33:24.629Z,10.10
2023-05-03T03:38:31.163Z,10.35
2023-05-03T03:43:38.970Z,10.88
2023-05-03T03:48:46.414Z,12.43
2023-05-03T03:53:49.177Z,12.00
2023-05-03T03:58:52.364Z,12.05
2023-05-03T04:03:55.195Z,12.63
2023-05-03T04:08:59.437Z,12.55
2023-05-03T04:14:02.987Z,12.65
2023-05-03T04:19:07.327Z,12.83
2023-05-03T04:24:16.851Z,13.38
2023-05-03T04:29:20.295Z,14.30
2023-05-03T04:34:23.789Z,13.40
2023-05-03T04:39:29.349Z,14.20
2023-05-03T04:44:32.448Z,14.67
2023-05-03T04:49:35.880Z,14.70
2023-05-03T04:54:38.748Z,14.88
2023-05-03T04:59:42.162Z,13.82
2023-05-03T05:04:45.339Z,15.32
2023-05-03T05:09:48.733Z,14.87
2023-05-03T05:14:52.342Z,14.20
2023-05-03T05:19:55.833Z,15.32
2023-05-03T05:24:58.776Z,14.23
2023-05-03T05:30:02.440Z,15.07
2023-05-03T05:35:06.926Z,14.73
2023-05-03T05:40:10.271Z,15.13
2023-05-03T05:45:19.121Z,16.42
2023-05-03T05:50:22.046Z,14.52
2023-05-03T05:55:31.205Z,15.07
2023-05-03T06:00:36.070Z,15.00
2023-05-03T06:05:39.912Z,15.10
2023-05-03T06:10:44.923Z,15.30
2023-05-03T06:15:48.278Z,14.75
2023-05-03T06:20:51.419Z,16.25
2023-05-03T06:25:55.856Z,16.33
2023-05-03T06:30:59.457Z,14.90
2023-05-03T06:36:04.182Z,14.05
2023-05-03T06:41:07.261Z,14.40
2023-05-03T06:46:11.404Z,15.07
2023-05-03T06:51:14.980Z,16.03
2023-05-03T06:56:17.760Z,16.13
2023-05-03T07:01:21.072Z,14.43
2023-05-03T07:06:24.699Z,14.00
2023-05-03T07:11:27.423Z,13.07
2023-05-03T07:16:30.419Z,11.97
2023-05-03T07:21:34.272Z,11.52
2023-05-03T07:26:37.172Z,11.10
2023-05-03T07:31:40.022Z,9.70
2023-05-03T07:36:42.869Z,8.77
2023-05-03T07:41:46.247Z,8.27
2023-05-03T07:46:49.600Z,7.60
2023-05-03T07:51:52.626Z,6.80
2023-05-03T07:56:55.809Z,6.95
2023-05-03T08:02:01.288Z,7.22
2023-05-03T08:07:05.018Z,5.70
2023-05-03T08:12:08.720Z,6.07
2023-05-03T08:17:12.220Z,6.60
2023-05-03T08:22:16.671Z,6.20
2023-05-03T08:27:19.619Z,6.63
2023-05-03T08:32:23.445Z,6.90
2023-05-03T08:37:26.352Z,6.38
2023-05-03T08:42:31.836Z,6.72
2023-05-03T08:47:37.781Z,6.60
2023-05-03T08:52:44.544Z,9.73
2023-05-03T08:57:47.345Z,6.90
2023-05-03T09:02:51.963Z,6.57
2023-05-03T09:08:05.827Z,7.28
2023-05-03T09:13:09.925Z,7.82
2023-05-03T09:18:18.148Z,7.07
2023-05-03T09:26:58.795Z,6.83
2023-05-03T09:32:06.115Z,6.68
2023-05-03T09:37:09.170Z,7.28
2023-05-03T09:42:17.392Z,6.83
2023-05-03T09:47:22.359Z,10.00
2023-05-03T09:52:28.417Z,9.60
2023-05-03T09:57:33.033Z,12.68
2023-05-03T10:02:36.382Z,9.68
2023-05-03T10:07:43.174Z,9.83
2023-05-03T10:12:46.364Z,7.60
2023-05-03T10:17:52.198Z,9.10
2023-05-03T10:23:12.151Z,8.68
2023-05-03T10:28:15.869Z,6.90
2023-05-03T10:33:18.697Z,8.60
2023-05-03T10:38:22.841Z,7.15
2023-05-03T10:43:32.039Z,9.17
2023-05-03T10:48:36.111Z,9.27
2023-05-03T10:53:41.358Z,6.40
2023-05-03T10:58:49.366Z,5.67
2023-05-03T11:04:01.205Z,6.03
2023-05-03T11:09:06.996Z,6.47
2023-05-03T11:14:11.914Z,7.07
2023-05-03T11:19:16.472Z,6.32
2023-05-03T11:24:19.364Z,5.77
2023-05-03T11:29:24.435Z,5.10
2023-05-03T11:34:27.322Z,5.83
2023-05-03T11:39:33.335Z,5.25
2023-05-03T11:44:37.987Z,5.68
2023-05-03T11:49:41.145Z,6.10
2023-05-03T11:54:44.390Z,5.78
2023-05-03T11:59:47.912Z,5.83
2023-05-03T12:04:51.400Z,6.32
2023-05-03T12:10:10.915Z,6.10
2023-05-03T12:15:30.126Z,7.93
2023-05-03T12:21:28.222Z,13.10
2023-05-03T12:25:57.317Z,9.20
2023-05-03T12:31:01.155Z,20.40
2023-05-03T12:36:04.923Z,10.20
2023-05-03T12:41:09.187Z,15.10
2023-05-03T12:46:32.982Z,17.08
2023-05-03T12:51:35.381Z,15.67
2023-05-03T12:56:40.865Z,13.52
2023-05-03T13:06:57.894Z,6.33
2023-05-03T13:12:02.736Z,7.35
2023-05-03T13:17:06.316Z,7.27
2023-05-03T13:22:09.200Z,6.85
2023-05-03T13:27:12.613Z,10.95
2023-05-03T13:32:15.767Z,5.97
2023-05-03T13:37:19.563Z,6.40
2023-05-03T13:42:22.639Z,10.97
2023-05-03T13:47:27.003Z,8.50
2023-05-03T13:52:32.295Z,10.57
2023-05-03T13:57:35.006Z,8.60
2023-05-03T14:02:37.862Z,12.85
2023-05-03T14:07:41.255Z,8.80
2023-05-03T14:12:45.326Z,10.70
2023-05-03T14:17:48.382Z,12.70
2023-05-03T14:22:51.635Z,9.33
2023-05-03T14:27:55.479Z,12.80
2023-05-03T14:32:59.008Z,8.93
2023-05-03T14:38:03.135Z,8.13
2023-05-03T14:43:08.575Z,8.15
2023-05-03T14:48:12.757Z,9.83
2023-05-03T14:53:17.628Z,8.48
2023-05-03T14:58:21.309Z,9.17
2023-05-03T15:03:25.636Z,10.90
2023-05-03T15:08:30.489Z,12.35
2023-05-03T15:13:34.539Z,8.50
2023-05-03T15:18:37.450Z,8.27
2023-05-03T15:23:40.357Z,8.87
2023-05-03T15:28:43.319Z,9.32
2023-05-03T15:33:46.240Z,9.20
2023-05-03T15:38:50.710Z,8.73
2023-05-03T15:43:53.655Z,9.07
2023-05-03T15:48:56.721Z,9.30
2023-05-03T15:53:59.893Z,9.82
2023-05-03T15:59:02.578Z,8.77
2023-05-03T16:04:08.080Z,8.57
2023-05-03T16:09:12.998Z,9.32
2023-05-03T16:14:16.395Z,9.27
2023-05-03T16:19:19.285Z,8.70
2023-05-03T16:24:22.020Z,9.07
2023-05-03T16:29:24.963Z,9.80
2023-05-03T16:34:28.110Z,8.55
2023-05-03T16:39:31.989Z,8.93
2023-05-03T16:44:34.962Z,9.10
2023-05-03T16:49:37.689Z,8.95
2023-05-03T16:54:40.576Z,8.73
2023-05-03T16:59:43.615Z,9.55
2023-05-03T17:04:46.638Z,9.23
2023-05-03T17:09:49.318Z,8.70
2023-05-03T17:14:52.293Z,9.07
2023-05-03T17:19:55.133Z,9.60
2023-05-03T17:24:58.600Z,8.65
2023-05-03T17:30:01.478Z,8.90
2023-05-03T17:35:04.869Z,9.35
2023-05-03T17:40:09.012Z,9.95
2023-05-03T17:45:12.353Z,11.17
2023-05-03T17:50:15.854Z,9.82
2023-05-03T17:55:18.836Z,10.90
2023-05-03T18:00:22.917Z,10.57
2023-05-03T18:05:26.979Z,10.65
2023-05-03T18:10:29.891Z,10.60
2023-05-03T18:15:33.128Z,9.65
2023-05-03T18:20:36.461Z,9.23
2023-05-03T18:25:39.994Z,9.68
2023-05-03T18:30:43.271Z,9.88
2023-05-03T18:35:51.147Z,10.40
2023-05-03T18:40:56.148Z,11.00
2023-05-03T18:45:59.767Z,12.57
2023-05-03T18:51:05.223Z,10.52
2023-05-03T18:56:09.209Z,11.45
2023-05-03T19:01:14.268Z,12.77
2023-05-03T19:06:18.753Z,11.95
2023-05-03T19:11:21.906Z,11.83
2023-05-03T19:16:25.648Z,11.32
2023-05-03T19:21:28.837Z,11.48
2023-05-03T19:26:31.749Z,11.30
2023-05-03T19:31:34.760Z,11.23
2023-05-03T19:36:38.453Z,11.00
2023-05-03T19:41:41.450Z,12.23
2023-05-03T19:46:44.777Z,10.80
2023-05-03T19:51:49.355Z,12.00
2023-05-03T19:56:52.308Z,11.88
2023-05-03T20:01:55.170Z,11.40
2023-05-03T20:06:58.297Z,12.40
2023-05-03T20:12:02.472Z,13.85
2023-05-03T20:17:05.182Z,11.40
2023-05-03T20:22:08.478Z,11.32
2023-05-03T20:27:11.634Z,10.10
2023-05-03T20:32:14.521Z,12.57
2023-05-03T20:37:17.530Z,11.10
2023-05-03T20:42:20.269Z,12.43
2023-05-03T20:47:23.379Z,13.50
2023-05-03T20:52:26.304Z,18.43
2023-05-03T20:57:29.072Z,18.77
2023-05-03T21:02:31.826Z,16.65
2023-05-03T21:07:34.727Z,16.20
2023-05-03T21:12:37.473Z,15.63
2023-05-03T21:17:40.372Z,14.60
2023-05-03T21:22:43.567Z,15.00
2023-05-03T21:27:46.587Z,14.57
2023-05-03T21:32:50.218Z,13.30
2023-05-03T21:37:53.442Z,13.05
2023-05-03T21:42:56.443Z,14.60
2023-05-03T21:47:59.241Z,13.95
2023-05-03T21:53:02.240Z,15.07
2023-05-03T21:58:05.322Z,14.07
2023-05-03T22:03:08.298Z,15.00
2023-05-03T22:08:14.869Z,17.87
2023-05-03T22:13:18.293Z,15.73
2023-05-03T22:18:21.205Z,15.52
2023-05-03T22:23:23.999Z,17.07
2023-05-03T22:28:27.070Z,13.95
2023-05-03T22:33:30.042Z,13.23
2023-05-03T22:38:32.753Z,11.65
2023-05-03T22:43:35.471Z,10.85
2023-05-03T22:48:38.097Z,11.10
2023-05-03T22:53:41.454Z,13.57
2023-05-03T22:58:44.246Z,12.07
2023-05-03T23:03:47.266Z,12.60
2023-05-03T23:08:50.184Z,12.80
2023-05-03T23:13:52.872Z,13.43
2023-05-03T23:18:55.797Z,12.45
2023-05-03T23:23:58.608Z,11.70
2023-05-03T23:29:01.846Z,13.13
2023-05-03T23:34:05.376Z,13.88
2023-05-03T23:39:08.181Z,13.77
2023-05-03T23:44:10.805Z,14.48
2023-05-03T23:49:13.467Z,14.57
2023-05-03T23:54:16.291Z,13.60
2023-05-03T23:59:19.044Z,15.25
